Terminal Aerodrome Forecast
Issued by NWS

Home | Current Version | Previous Version | Text Only | Print | Product List | Glossary On
Versions: 1 2 3 4 5 6 7 8 9 10 11 12
000
FTUS45 KRIW 272300
TAFBPI
TAF
KBPI 272331Z 2800/2824 VRB05KT P6SM SCT250
     FM280300 10007KT P6SM FEW120 BKN200
     FM281600 16008KT P6SM SCT080 BKN120
     FM282100 19008KT P6SM VCTS SCT050CB BKN080=

USA.gov is the U.S. government's official web portal to all federal, state and local government web resources and services.